Time;durP1;ratioP1;P1;durP2;ratioP2;P2;SDS_P1;SDS_P2;PMS_P1;PMS_P2;Temp;Humidity;BMP_temperature;BMP_pressure;BME280_temperature;BME280_humidity;BME280_pressure;Samples;Min_cycle;Max_cycle;Signal;HPM_P1;HPM_P2
2023/12/13 00:00:23;;;;;;;0.00;0.00;;;;;;;;;;6251300;22;20024;-83
2023/12/13 00:02:49;;;;;;;0.00;0.00;;;;;;;;;;6221939;22;20047;-85
2023/12/13 00:05:14;;;;;;;0.00;0.00;;;;;;;;;;6246661;22;19999;-84
2023/12/13 00:07:40;;;;;;;0.00;0.00;;;;;;;;;;6274497;22;20061;-84
2023/12/13 00:10:05;;;;;;;0.00;0.00;;;;;;;;;;6247057;22;20373;-84
2023/12/13 00:12:31;;;;;;;0.00;0.00;;;;;;;;;;6247280;22;20367;-84
2023/12/13 00:14:56;;;;;;;0.00;0.00;;;;;;;;;;6273960;22;20327;-85
2023/12/13 00:17:22;;;;;;;0.00;0.00;;;;;;;;;;6273711;22;20000;-84
2023/12/13 00:19:47;;;;;;;0.00;0.00;;;;;;;;;;6246779;22;20418;-84
2023/12/13 00:22:13;;;;;;;0.00;0.00;;;;;;;;;;6273258;22;20031;-84
2023/12/13 00:24:39;;;;;;;0.00;0.00;;;;;;;;;;6247426;22;20053;-84
2023/12/13 00:27:04;;;;;;;0.00;0.00;;;;;;;;;;6274303;22;20004;-84
2023/12/13 00:29:30;;;;;;;0.00;0.00;;;;;;;;;;6274220;22;20074;-84
2023/12/13 00:31:55;;;;;;;0.00;0.00;;;;;;;;;;6274233;22;20075;-84
2023/12/13 00:34:21;;;;;;;0.00;0.00;;;;;;;;;;6221523;22;20004;-86
2023/12/13 00:36:46;;;;;;;0.00;0.00;;;;;;;;;;6241473;22;20424;-85
2023/12/13 00:39:12;;;;;;;0.00;0.00;;;;;;;;;;6246627;22;20061;-84
2023/12/13 00:41:37;;;;;;;0.00;0.00;;;;;;;;;;6273954;22;20054;-84
2023/12/13 00:44:03;;;;;;;0.00;0.00;;;;;;;;;;6246809;22;20057;-84
2023/12/13 00:46:29;;;;;;;0.00;0.00;;;;;;;;;;6246601;22;20007;-84
2023/12/13 00:48:54;;;;;;;0.00;0.00;;;;;;;;;;6221227;22;20455;-84
2023/12/13 00:51:21;;;;;;;0.00;0.00;;;;;;;;;;6195832;22;20065;-84
2023/12/13 00:53:47;;;;;;;0.00;0.00;;;;;;;;;;6221447;22;20000;-85
2023/12/13 00:56:12;;;;;;;0.00;0.00;;;;;;;;;;6221542;22;20038;-85
2023/12/13 00:58:38;;;;;;;0.00;0.00;;;;;;;;;;6196665;22;20004;-84
2023/12/13 01:01:07;;;;;;;0.00;0.00;;;;;;;;;;6221579;22;20134;-84
2023/12/13 01:03:32;;;;;;;0.00;0.00;;;;;;;;;;6245556;22;20343;-85
2023/12/13 01:05:58;;;;;;;0.00;0.00;;;;;;;;;;6221252;22;20010;-84
2023/12/13 01:08:24;;;;;;;0.00;0.00;;;;;;;;;;6273564;22;20064;-84
2023/12/13 01:10:49;;;;;;;0.00;0.00;;;;;;;;;;6222361;22;20015;-84
2023/12/13 01:13:15;;;;;;;0.00;0.00;;;;;;;;;;6221529;22;20347;-84
2023/12/13 01:15:40;;;;;;;0.00;0.00;;;;;;;;;;6221563;22;20007;-84
2023/12/13 01:18:06;;;;;;;0.00;0.00;;;;;;;;;;6221184;22;20069;-84
2023/12/13 01:20:32;;;;;;;0.00;0.00;;;;;;;;;;6247173;22;20478;-84
2023/12/13 01:22:57;;;;;;;0.00;0.00;;;;;;;;;;6272767;22;20012;-83
2023/12/13 01:25:23;;;;;;;0.00;0.00;;;;;;;;;;6246980;22;20000;-84
2023/12/13 01:27:48;;;;;;;0.00;0.00;;;;;;;;;;6246917;22;20390;-84
2023/12/13 01:30:14;;;;;;;0.00;0.00;;;;;;;;;;6246666;22;20000;-84
2023/12/13 01:32:39;;;;;;;0.00;0.00;;;;;;;;;;6274043;22;20004;-84
2023/12/13 01:35:05;;;;;;;0.00;0.00;;;;;;;;;;6221740;22;20138;-85
2023/12/13 01:37:31;;;;;;;0.00;0.00;;;;;;;;;;6246716;22;20011;-84
2023/12/13 01:39:57;;;;;;;0.00;0.00;;;;;;;;;;6246961;22;20003;-84
2023/12/13 01:42:23;;;;;;;0.00;0.00;;;;;;;;;;6273724;22;20076;-84
2023/12/13 01:44:49;;;;;;;0.00;0.00;;;;;;;;;;6246906;22;19996;-84
2023/12/13 01:47:14;;;;;;;0.00;0.00;;;;;;;;;;6273593;22;20011;-84
2023/12/13 01:49:40;;;;;;;0.00;0.00;;;;;;;;;;6221891;22;20018;-84
2023/12/13 01:52:06;;;;;;;0.00;0.00;;;;;;;;;;6248848;22;20004;-84
2023/12/13 01:54:32;;;;;;;0.00;0.00;;;;;;;;;;6248843;22;20007;-84
2023/12/13 01:56:58;;;;;;;0.00;0.00;;;;;;;;;;6223487;22;20419;-84
2023/12/13 01:59:23;;;;;;;0.00;0.00;;;;;;;;;;6248637;22;20426;-85
2023/12/13 02:01:49;;;;;;;0.00;0.00;;;;;;;;;;6223435;22;20074;-85
2023/12/13 02:04:15;;;;;;;0.00;0.00;;;;;;;;;;6248976;22;20082;-85
2023/12/13 02:06:42;;;;;;;0.00;0.00;;;;;;;;;;6243709;22;19999;-85
2023/12/13 02:09:08;;;;;;;0.00;0.00;;;;;;;;;;6274982;22;20328;-85
2023/12/13 02:11:34;;;;;;;0.00;0.00;;;;;;;;;;6248207;22;20004;-85
2023/12/13 02:14:00;;;;;;;0.00;0.00;;;;;;;;;;6273047;22;20029;-85
2023/12/13 02:16:26;;;;;;;0.00;0.00;;;;;;;;;;6197915;22;20538;-85
2023/12/13 02:18:52;;;;;;;0.00;0.00;;;;;;;;;;6248140;22;20003;-84
2023/12/13 02:21:17;;;;;;;0.00;0.00;;;;;;;;;;6222388;22;20003;-85
2023/12/13 02:23:43;;;;;;;0.00;0.00;;;;;;;;;;6247910;22;20031;-84
2023/12/13 02:26:09;;;;;;;0.00;0.00;;;;;;;;;;6197691;22;20008;-84
2023/12/13 02:28:34;;;;;;;0.00;0.00;;;;;;;;;;6222901;22;20031;-84
2023/12/13 02:31:00;;;;;;;0.00;0.00;;;;;;;;;;6197445;22;20008;-84
2023/12/13 02:33:26;;;;;;;0.00;0.00;;;;;;;;;;6222551;22;20253;-83
2023/12/13 02:35:54;;;;;;;0.00;0.00;;;;;;;;;;6247929;22;20061;-83
2023/12/13 02:38:19;;;;;;;0.00;0.00;;;;;;;;;;6248011;22;20008;-83
2023/12/13 02:40:45;;;;;;;0.00;0.00;;;;;;;;;;6197859;22;20007;-83
2023/12/13 02:43:10;;;;;;;0.00;0.00;;;;;;;;;;6222559;22;20339;-84
2023/12/13 02:45:36;;;;;;;0.00;0.00;;;;;;;;;;6248213;22;20394;-87
2023/12/13 02:48:01;;;;;;;0.00;0.00;;;;;;;;;;6248367;22;20007;-84
2023/12/13 02:50:27;;;;;;;0.00;0.00;;;;;;;;;;6242864;23;20035;-85
2023/12/13 02:52:52;;;;;;;0.00;0.00;;;;;;;;;;6242945;23;20074;-83
2023/12/13 02:55:18;;;;;;;0.00;0.00;;;;;;;;;;6243071;23;20008;-83
2023/12/13 02:57:43;;;;;;;0.00;0.00;;;;;;;;;;6245957;22;20000;-83
2023/12/13 03:00:09;;;;;;;0.00;0.00;;;;;;;;;;6218675;23;20004;-83
2023/12/13 03:02:35;;;;;;;0.00;0.00;;;;;;;;;;6245677;22;20000;-83
2023/12/13 03:05:01;;;;;;;0.00;0.00;;;;;;;;;;6217979;23;20004;-84
2023/12/13 03:07:27;;;;;;;0.00;0.00;;;;;;;;;;6217266;23;20004;-85
2023/12/13 03:09:53;;;;;;;0.00;0.00;;;;;;;;;;6217413;23;20415;-84
2023/12/13 03:12:18;;;;;;;0.00;0.00;;;;;;;;;;6242532;23;20063;-84
2023/12/13 03:14:44;;;;;;;0.00;0.00;;;;;;;;;;6217027;23;20000;-85
2023/12/13 03:17:09;;;;;;;0.00;0.00;;;;;;;;;;6268266;22;20004;-84
2023/12/13 03:19:35;;;;;;;0.00;0.00;;;;;;;;;;6243988;22;20024;-84
2023/12/13 03:22:00;;;;;;;0.00;0.00;;;;;;;;;;6242432;23;20035;-83
2023/12/13 03:24:26;;;;;;;0.00;0.00;;;;;;;;;;6217564;23;20059;-83
2023/12/13 03:26:51;;;;;;;0.00;0.00;;;;;;;;;;6241661;23;20000;-84
2023/12/13 03:29:17;;;;;;;0.00;0.00;;;;;;;;;;6243149;23;20133;-83
2023/12/13 03:31:43;;;;;;;0.00;0.00;;;;;;;;;;6217504;23;20487;-83
2023/12/13 03:34:08;;;;;;;0.00;0.00;;;;;;;;;;6242574;23;20043;-83
2023/12/13 03:36:34;;;;;;;0.00;0.00;;;;;;;;;;6243902;22;20027;-85
2023/12/13 03:38:59;;;;;;;0.00;0.00;;;;;;;;;;6242463;23;20474;-85
2023/12/13 03:41:25;;;;;;;0.00;0.00;;;;;;;;;;6243755;22;19996;-83
2023/12/13 03:43:51;;;;;;;0.00;0.00;;;;;;;;;;6188148;23;20034;-86
2023/12/13 03:46:16;;;;;;;0.00;0.00;;;;;;;;;;6241033;23;20018;-84
2023/12/13 03:48:42;;;;;;;0.00;0.00;;;;;;;;;;6241867;23;20043;-85
2023/12/13 03:51:07;;;;;;;0.00;0.00;;;;;;;;;;6217461;23;20004;-85
2023/12/13 03:53:33;;;;;;;0.00;0.00;;;;;;;;;;6241831;23;20011;-83
2023/12/13 03:55:59;;;;;;;0.00;0.00;;;;;;;;;;6241892;23;19996;-85
2023/12/13 03:58:25;;;;;;;0.00;0.00;;;;;;;;;;6216917;23;20455;-83
2023/12/13 04:00:51;;;;;;;0.00;0.00;;;;;;;;;;6242214;23;20095;-84
2023/12/13 04:03:16;;;;;;;0.00;0.00;;;;;;;;;;6241531;23;20008;-84
2023/12/13 04:05:42;;;;;;;0.00;0.00;;;;;;;;;;6191762;23;20014;-84
2023/12/13 04:08:08;;;;;;;0.00;0.00;;;;;;;;;;6241531;23;20031;-85
2023/12/13 04:10:34;;;;;;;0.00;0.00;;;;;;;;;;6191664;23;20343;-85
2023/12/13 04:12:59;;;;;;;0.00;0.00;;;;;;;;;;6190910;23;20019;-84
2023/12/13 04:15:25;;;;;;;0.00;0.00;;;;;;;;;;6216602;23;20019;-85
2023/12/13 04:17:51;;;;;;;0.00;0.00;;;;;;;;;;6216952;23;20005;-84
2023/12/13 04:20:16;;;;;;;0.00;0.00;;;;;;;;;;6216823;23;20332;-84
2023/12/13 04:22:42;;;;;;;0.00;0.00;;;;;;;;;;6259074;23;20055;-85
2023/12/13 04:25:08;;;;;;;0.00;0.00;;;;;;;;;;6236298;23;19996;-83
2023/12/13 04:27:33;;;;;;;0.00;0.00;;;;;;;;;;6217291;23;20016;-85
2023/12/13 04:29:59;;;;;;;0.00;0.00;;;;;;;;;;6242552;23;20035;-84
2023/12/13 04:32:24;;;;;;;0.00;0.00;;;;;;;;;;6268955;23;20008;-84
2023/12/13 04:34:50;;;;;;;0.00;0.00;;;;;;;;;;6242477;23;20016;-84
2023/12/13 04:37:16;;;;;;;0.00;0.00;;;;;;;;;;6242958;23;20004;-84
2023/12/13 04:39:41;;;;;;;0.00;0.00;;;;;;;;;;6255036;23;20004;-85
2023/12/13 04:42:07;;;;;;;0.00;0.00;;;;;;;;;;6216751;23;20050;-85
2023/12/13 04:44:33;;;;;;;0.00;0.00;;;;;;;;;;6242230;23;20000;-84
2023/12/13 04:46:58;;;;;;;0.00;0.00;;;;;;;;;;6243707;22;20471;-85
2023/12/13 04:49:24;;;;;;;0.00;0.00;;;;;;;;;;6191954;22;20474;-85
2023/12/13 04:51:49;;;;;;;0.00;0.00;;;;;;;;;;6248123;22;20070;-84
2023/12/13 04:54:15;;;;;;;0.00;0.00;;;;;;;;;;6246835;22;20018;-85
2023/12/13 04:56:43;;;;;;;0.00;0.00;;;;;;;;;;6221556;22;20066;-85
2023/12/13 04:59:09;;;;;;;0.00;0.00;;;;;;;;;;6198305;22;20939;-85
2023/12/13 05:01:35;;;;;;;0.00;0.00;;;;;;;;;;6197231;22;20014;-85
2023/12/13 05:04:00;;;;;;;0.00;0.00;;;;;;;;;;6222009;22;20008;-85
2023/12/13 05:06:26;;;;;;;0.00;0.00;;;;;;;;;;6273681;22;20031;-85
2023/12/13 05:08:51;;;;;;;0.00;0.00;;;;;;;;;;6221539;22;20007;-85
2023/12/13 05:11:17;;;;;;;0.00;0.00;;;;;;;;;;6247315;22;20033;-85
2023/12/13 05:13:42;;;;;;;0.00;0.00;;;;;;;;;;6197554;22;20004;-85
2023/12/13 05:16:08;;;;;;;0.00;0.00;;;;;;;;;;6220051;22;20014;-88
2023/12/13 05:18:33;;;;;;;0.00;0.00;;;;;;;;;;6221453;22;20003;-82
2023/12/13 05:21:01;;;;;;;0.00;0.00;;;;;;;;;;6246555;22;20435;-82
2023/12/13 05:23:27;;;;;;;0.00;0.00;;;;;;;;;;6222127;22;20423;-82
2023/12/13 05:25:52;;;;;;;0.00;0.00;;;;;;;;;;6248255;22;20058;-82
2023/12/13 05:28:18;;;;;;;0.00;0.00;;;;;;;;;;6275056;22;20023;-82
2023/12/13 05:30:43;;;;;;;0.00;0.00;;;;;;;;;;6275648;22;20011;-81
2023/12/13 05:33:09;;;;;;;0.00;0.00;;;;;;;;;;6273802;22;20423;-82
2023/12/13 05:35:35;;;;;;;0.00;0.00;;;;;;;;;;6222559;22;20004;-84
2023/12/13 05:38:00;;;;;;;0.00;0.00;;;;;;;;;;6247989;22;20156;-84
2023/12/13 05:40:26;;;;;;;0.00;0.00;;;;;;;;;;6274859;22;20008;-83
2023/12/13 05:42:55;;;;;;;0.00;0.00;;;;;;;;;;6248211;22;19999;-88
2023/12/13 05:45:20;;;;;;;0.00;0.00;;;;;;;;;;6224326;22;20004;-91
2023/12/13 05:47:47;;;;;;;0.00;0.00;;;;;;;;;;6225399;22;20079;-92
2023/12/13 05:50:13;;;;;;;0.00;0.00;;;;;;;;;;6200625;22;20018;-91
2023/12/13 05:56:10;;;;;;;0.00;0.00;;;;;;;;;;6277229;22;20076;-90
2023/12/13 06:02:08;;;;;;;0.00;0.00;;;;;;;;;;6276094;22;20020;-92
2023/12/13 06:07:43;;;;;;;0.00;0.00;;;;;;;;;;6283839;22;20434;-87
2023/12/13 06:10:54;;;;;;;0.00;0.00;;;;;;;;;;6256132;22;20369;-88
2023/12/13 06:13:20;;;;;;;0.00;0.00;;;;;;;;;;6252402;22;20400;-87
2023/12/13 06:19:32;;;;;;;0.00;0.00;;;;;;;;;;6218487;22;20509;-91
2023/12/13 06:22:00;;;;;;;0.00;0.00;;;;;;;;;;6226620;22;20010;-86
2023/12/13 06:27:46;;;;;;;0.00;0.00;;;;;;;;;;6272723;22;20027;-85
2023/12/13 06:30:24;;;;;;;0.00;0.00;;;;;;;;;;6221404;22;20090;-86
2023/12/13 06:32:49;;;;;;;0.00;0.00;;;;;;;;;;6202817;22;20508;-86
2023/12/13 06:35:16;;;;;;;0.00;0.00;;;;;;;;;;6195178;22;20007;-87
2023/12/13 06:37:49;;;;;;;0.00;0.00;;;;;;;;;;6240766;22;19996;-84
2023/12/13 06:42:43;;;;;;;0.00;0.00;;;;;;;;;;6272004;22;20085;-86
2023/12/13 06:46:06;;;;;;;0.00;0.00;;;;;;;;;;6246077;22;20011;-87
2023/12/13 06:48:31;;;;;;;0.00;0.00;;;;;;;;;;6204172;22;20046;-89
2023/12/13 06:54:19;;;;;;;0.00;0.00;;;;;;;;;;6248306;22;20027;-88
2023/12/13 06:56:45;;;;;;;0.00;0.00;;;;;;;;;;6192290;22;20042;-83
2023/12/13 06:59:10;;;;;;;0.00;0.00;;;;;;;;;;6272016;22;20061;-86
2023/12/13 07:01:36;;;;;;;0.00;0.00;;;;;;;;;;6198390;22;20316;-90
2023/12/13 07:04:09;;;;;;;0.00;0.00;;;;;;;;;;6198597;22;20363;-90
2023/12/13 07:06:35;;;;;;;0.00;0.00;;;;;;;;;;6200375;22;20014;-88
2023/12/13 07:09:08;;;;;;;0.00;0.00;;;;;;;;;;6224568;22;20066;-93
2023/12/13 07:11:52;;;;;;;0.00;0.00;;;;;;;;;;6235036;22;20403;-87
2023/12/13 07:14:17;;;;;;;0.13;0.00;;;;;;;;;;6244186;22;20074;-91
2023/12/13 07:16:43;;;;;;;0.00;0.00;;;;;;;;;;6218789;22;20003;-87
2023/12/13 07:19:09;;;;;;;0.00;0.00;;;;;;;;;;6200364;22;20064;-92
2023/12/13 07:21:49;;;;;;;0.00;0.00;;;;;;;;;;6227677;22;19996;-93
2023/12/13 07:24:15;;;;;;;0.00;0.00;;;;;;;;;;6231462;22;20008;-91
2023/12/13 07:32:04;;;;;;;0.00;0.00;;;;;;;;;;6277221;22;20019;-87
2023/12/13 07:34:29;;;;;;;;;;;;;;;;;;6223007;22;20779;-88
2023/12/13 07:37:12;;;;;;;0.00;0.00;;;;;;;;;;6245793;22;19914;-89
2023/12/13 07:39:38;;;;;;;0.00;0.00;;;;;;;;;;6223867;22;20353;-89
2023/12/13 08:10:14;;;;;;;0.00;0.00;;;;;;;;;;6210372;22;20076;-79
2023/12/13 08:12:48;;;;;;;0.00;0.00;;;;;;;;;;6247578;22;20346;-79
2023/12/13 08:15:15;;;;;;;0.00;0.00;;;;;;;;;;6223834;22;20055;-79
2023/12/13 08:17:53;;;;;;;0.00;0.00;;;;;;;;;;6243501;22;20018;-79
2023/12/13 08:20:20;;;;;;;0.00;0.00;;;;;;;;;;6200266;22;20008;-79
2023/12/13 08:22:46;;;;;;;0.00;0.00;;;;;;;;;;6228540;22;20014;-78
2023/12/13 08:25:13;;;;;;;0.00;0.00;;;;;;;;;;6236268;22;20366;-78
2023/12/13 08:27:39;;;;;;;0.00;0.00;;;;;;;;;;6218394;22;20085;-80
2023/12/13 08:30:05;;;;;;;0.00;0.00;;;;;;;;;;6232974;22;20378;-77
2023/12/13 08:32:34;;;;;;;0.00;0.00;;;;;;;;;;6260393;22;20030;-77
2023/12/13 08:35:00;;;;;;;0.00;0.00;;;;;;;;;;6266729;22;20346;-79
2023/12/13 08:37:25;;;;;;;0.00;0.00;;;;;;;;;;6270939;22;20024;-79
2023/12/13 08:39:52;;;;;;;0.00;0.00;;;;;;;;;;6269030;22;20042;-79
2023/12/13 08:42:19;;;;;;;0.00;0.00;;;;;;;;;;6269102;22;20006;-79
2023/12/13 08:48:17;;;;;;;0.00;0.00;;;;;;;;;;6196357;22;20022;-78
2023/12/13 08:50:58;;;;;;;0.00;0.00;;;;;;;;;;6216034;22;20008;-78
2023/12/13 08:53:24;;;;;;;0.00;0.00;;;;;;;;;;6239388;22;20008;-80
2023/12/13 08:55:50;;;;;;;0.00;0.00;;;;;;;;;;6267662;22;20224;-80
2023/12/13 08:58:15;;;;;;;0.00;0.00;;;;;;;;;;6268548;22;19999;-81
2023/12/13 09:00:41;;;;;;;0.00;0.00;;;;;;;;;;6244763;22;20382;-77
2023/12/13 09:03:19;;;;;;;0.00;0.00;;;;;;;;;;6164674;22;20288;-81
2023/12/13 09:05:48;;;;;;;0.00;0.00;;;;;;;;;;6131523;22;20036;-80
2023/12/13 09:08:26;;;;;;;0.00;0.00;;;;;;;;;;6199095;22;20117;-81
2023/12/13 09:10:52;;;;;;;0.00;0.00;;;;;;;;;;6248196;22;20558;-80
2023/12/13 09:13:17;;;;;;;0.00;0.00;;;;;;;;;;6252697;22;20004;-82
2023/12/13 09:15:43;;;;;;;0.00;0.00;;;;;;;;;;6226874;22;20008;-80
2023/12/13 09:18:27;;;;;;;0.00;0.00;;;;;;;;;;6251516;22;20011;-79
2023/12/13 09:21:05;;;;;;;0.00;0.00;;;;;;;;;;6249362;22;20023;-80
2023/12/13 09:23:35;;;;;;;0.00;0.00;;;;;;;;;;6227029;22;20021;-83
2023/12/13 09:26:07;;;;;;;0.00;0.00;;;;;;;;;;6262063;22;20004;-82
2023/12/13 09:28:35;;;;;;;0.00;0.00;;;;;;;;;;6191608;22;20046;-82
2023/12/13 09:31:03;;;;;;;0.00;0.00;;;;;;;;;;6241638;22;20008;-81
2023/12/13 09:33:32;;;;;;;0.00;0.00;;;;;;;;;;6243001;22;20310;-79
2023/12/13 09:35:58;;;;;;;0.00;0.00;;;;;;;;;;6256359;22;20008;-79
2023/12/13 09:38:30;;;;;;;0.00;0.00;;;;;;;;;;6237564;22;20010;-79
2023/12/13 09:40:56;;;;;;;0.00;0.00;;;;;;;;;;6269021;22;20008;-78
2023/12/13 09:43:23;;;;;;;0.00;0.00;;;;;;;;;;6243478;22;20007;-81
2023/12/13 09:45:54;;;;;;;0.00;0.00;;;;;;;;;;6208231;22;20138;-77
2023/12/13 09:48:24;;;;;;;0.00;0.00;;;;;;;;;;6242937;22;20078;-80
2023/12/13 09:50:55;;;;;;;0.00;0.00;;;;;;;;;;6197737;22;20034;-80
2023/12/13 09:53:21;;;;;;;0.00;0.00;;;;;;;;;;6247978;22;20095;-79
2023/12/13 09:55:47;;;;;;;0.00;0.00;;;;;;;;;;6273972;22;20626;-79
2023/12/13 09:58:22;;;;;;;0.00;0.00;;;;;;;;;;6263251;22;20027;-78
2023/12/13 10:00:51;;;;;;;0.00;0.00;;;;;;;;;;6215060;22;20003;-78
2023/12/13 10:03:17;;;;;;;0.00;0.00;;;;;;;;;;6263626;22;20056;-78
2023/12/13 10:05:43;;;;;;;0.00;0.00;;;;;;;;;;6270451;22;20011;-77
2023/12/13 10:08:10;;;;;;;0.00;0.00;;;;;;;;;;6218954;22;20007;-78
2023/12/13 10:10:36;;;;;;;0.00;0.00;;;;;;;;;;6267711;22;20103;-78
2023/12/13 10:13:01;;;;;;;0.00;0.00;;;;;;;;;;6270531;22;20110;-78
2023/12/13 10:15:36;;;;;;;0.00;0.00;;;;;;;;;;6272837;22;20446;-76
2023/12/13 10:18:01;;;;;;;0.00;0.00;;;;;;;;;;6200002;22;20092;-80
2023/12/13 10:20:28;;;;;;;0.00;0.00;;;;;;;;;;6273691;22;20039;-78
2023/12/13 10:22:54;;;;;;;0.00;0.00;;;;;;;;;;6219976;22;20003;-76
2023/12/13 10:25:23;;;;;;;0.00;0.00;;;;;;;;;;6245864;22;20014;-77
2023/12/13 10:44:37;;;;;;;0.00;0.00;;;;;;;;;;6271133;22;20046;-79
2023/12/13 10:47:08;;;;;;;0.00;0.00;;;;;;;;;;6272152;22;20031;-79
2023/12/13 10:49:37;;;;;;;0.00;0.00;;;;;;;;;;6246514;22;20031;-79
2023/12/13 10:52:04;;;;;;;0.00;0.00;;;;;;;;;;6247695;22;20007;-80
2023/12/13 11:23:16;;;;;;;0.00;0.00;;;;;;;;;;6246225;22;20015;-80
2023/12/13 11:25:44;;;;;;;0.00;0.00;;;;;;;;;;6199248;22;20047;-77
2023/12/13 11:28:19;;;;;;;0.00;0.00;;;;;;;;;;6274856;22;20004;-76
2023/12/13 11:30:45;;;;;;;0.00;0.00;;;;;;;;;;6222272;22;20014;-78
2023/12/13 11:33:11;;;;;;;0.00;0.00;;;;;;;;;;6241862;22;20439;-77
2023/12/13 11:35:40;;;;;;;0.00;0.00;;;;;;;;;;6271699;22;19996;-80
2023/12/13 11:38:06;;;;;;;0.00;0.00;;;;;;;;;;6272997;22;20014;-82
2023/12/13 11:40:42;;;;;;;0.00;0.00;;;;;;;;;;6220159;22;20036;-79
2023/12/13 11:43:08;;;;;;;0.00;0.00;;;;;;;;;;6275915;22;20014;-76
2023/12/13 11:45:36;;;;;;;0.00;0.00;;;;;;;;;;6228352;22;20035;-79
2023/12/13 11:48:01;;;;;;;0.00;0.00;;;;;;;;;;6245249;22;20004;-81
2023/12/13 11:50:27;;;;;;;0.00;0.00;;;;;;;;;;6272557;22;20450;-78
2023/12/13 11:52:56;;;;;;;0.00;0.00;;;;;;;;;;6268927;22;20073;-79
2023/12/13 11:55:22;;;;;;;0.00;0.00;;;;;;;;;;6265781;22;20075;-80
2023/12/13 11:57:51;;;;;;;0.00;0.00;;;;;;;;;;6266096;22;20008;-78
2023/12/13 12:00:19;;;;;;;0.00;0.00;;;;;;;;;;6266310;22;20095;-77
2023/12/13 12:02:45;;;;;;;0.00;0.00;;;;;;;;;;6266541;22;20347;-77
2023/12/13 12:05:13;;;;;;;0.00;0.00;;;;;;;;;;6265571;22;20004;-76
2023/12/13 12:07:39;;;;;;;0.00;0.00;;;;;;;;;;6240052;22;20083;-78
2023/12/13 12:10:07;;;;;;;0.00;0.00;;;;;;;;;;6268504;22;20004;-78
2023/12/13 12:12:34;;;;;;;0.00;0.00;;;;;;;;;;6245124;22;20007;-78
2023/12/13 12:15:07;;;;;;;0.00;0.00;;;;;;;;;;6220807;22;20000;-81
2023/12/13 12:17:32;;;;;;;0.00;0.00;;;;;;;;;;6246671;22;20054;-79
2023/12/13 12:22:42;;;;;;;0.00;0.00;;;;;;;;;;6271625;22;20020;-85
2023/12/13 12:25:08;;;;;;;0.00;0.00;;;;;;;;;;6245189;22;20259;-86
2023/12/13 12:27:35;;;;;;;0.00;0.00;;;;;;;;;;6271509;22;20070;-86
2023/12/13 12:30:03;;;;;;;0.00;0.00;;;;;;;;;;6245422;22;20004;-83
2023/12/13 12:32:32;;;;;;;0.00;0.00;;;;;;;;;;6207326;22;20100;-84
2023/12/13 12:34:57;;;;;;;0.00;0.00;;;;;;;;;;6224074;22;20039;-83
2023/12/13 12:37:23;;;;;;;0.00;0.00;;;;;;;;;;6228967;22;20014;-82
2023/12/13 12:39:48;;;;;;;0.00;0.00;;;;;;;;;;6266581;22;20014;-83
2023/12/13 12:42:14;;;;;;;0.00;0.00;;;;;;;;;;6236922;22;20003;-81
2023/12/13 12:44:40;;;;;;;0.00;0.00;;;;;;;;;;6234552;22;20437;-83
2023/12/13 12:47:05;;;;;;;0.00;0.00;;;;;;;;;;6214731;22;20000;-84
2023/12/13 12:49:31;;;;;;;0.00;0.00;;;;;;;;;;6241222;22;20292;-82
2023/12/13 12:51:56;;;;;;;0.00;0.00;;;;;;;;;;6266627;22;19999;-82
2023/12/13 12:54:22;;;;;;;0.00;0.00;;;;;;;;;;6265403;22;20090;-82
2023/12/13 12:56:47;;;;;;;0.00;0.00;;;;;;;;;;6240056;22;20057;-86
2023/12/13 12:59:14;;;;;;;0.00;0.00;;;;;;;;;;6268485;22;20601;-86
2023/12/13 13:01:43;;;;;;;0.00;0.00;;;;;;;;;;6264371;22;20046;-85
2023/12/13 13:04:13;;;;;;;0.00;0.00;;;;;;;;;;6267816;22;20014;-86
2023/12/13 13:06:39;;;;;;;0.00;0.00;;;;;;;;;;6244613;22;20015;-88
2023/12/13 13:09:06;;;;;;;0.00;0.00;;;;;;;;;;6194315;22;20077;-85
2023/12/13 13:11:32;;;;;;;0.00;0.00;;;;;;;;;;6245805;22;20031;-84
2023/12/13 13:13:58;;;;;;;0.10;0.00;;;;;;;;;;6246361;22;20010;-83
2023/12/13 13:16:23;;;;;;;0.00;0.00;;;;;;;;;;6272546;22;20000;-86
2023/12/13 13:18:49;;;;;;;0.00;0.00;;;;;;;;;;6245847;22;20093;-89
2023/12/13 13:21:15;;;;;;;0.00;0.00;;;;;;;;;;6245885;22;20036;-84
2023/12/13 13:23:41;;;;;;;0.00;0.00;;;;;;;;;;6245636;22;20415;-85
2023/12/13 13:26:09;;;;;;;0.00;0.00;;;;;;;;;;6195476;22;20030;-84
2023/12/13 13:28:35;;;;;;;0.00;0.00;;;;;;;;;;6247018;22;19999;-84
2023/12/13 13:31:01;;;;;;;0.00;0.00;;;;;;;;;;6245593;22;20015;-83
2023/12/13 13:33:26;;;;;;;0.00;0.00;;;;;;;;;;6246268;22;20008;-83
2023/12/13 13:35:52;;;;;;;0.00;0.00;;;;;;;;;;6220930;22;20003;-82
2023/12/13 13:38:17;;;;;;;0.00;0.00;;;;;;;;;;6246044;22;20061;-83
2023/12/13 13:40:43;;;;;;;0.00;0.00;;;;;;;;;;6274035;22;19999;-84
2023/12/13 13:43:08;;;;;;;0.00;0.00;;;;;;;;;;6220293;22;20003;-83
2023/12/13 13:45:34;;;;;;;0.00;0.00;;;;;;;;;;6221706;22;20012;-84
2023/12/13 13:48:00;;;;;;;0.00;0.00;;;;;;;;;;6248003;22;20031;-83
2023/12/13 13:50:26;;;;;;;0.00;0.00;;;;;;;;;;6248597;22;20327;-84
2023/12/13 13:52:52;;;;;;;0.00;0.00;;;;;;;;;;6275581;22;20458;-82
2023/12/13 13:55:18;;;;;;;0.00;0.00;;;;;;;;;;6224148;22;19995;-84
2023/12/13 13:57:44;;;;;;;0.00;0.00;;;;;;;;;;6274805;22;20389;-83
2023/12/13 14:00:11;;;;;;;0.00;0.00;;;;;;;;;;6246029;22;20086;-82
2023/12/13 14:02:37;;;;;;;0.00;0.00;;;;;;;;;;6248295;22;20004;-83
2023/12/13 14:05:04;;;;;;;0.00;0.00;;;;;;;;;;6245784;22;20027;-90
2023/12/13 14:07:31;;;;;;;0.00;0.00;;;;;;;;;;6225815;22;20004;-83
2023/12/13 14:09:58;;;;;;;0.00;0.00;;;;;;;;;;6253933;22;19999;-83
2023/12/13 14:12:23;;;;;;;0.00;0.00;;;;;;;;;;6227090;22;20002;-87
2023/12/13 14:14:49;;;;;;;0.00;0.00;;;;;;;;;;6234752;22;20031;-83
2023/12/13 14:17:15;;;;;;;0.00;0.00;;;;;;;;;;6228758;22;20423;-82
2023/12/13 14:19:40;;;;;;;0.00;0.00;;;;;;;;;;6251754;22;20004;-88
2023/12/13 14:22:06;;;;;;;0.00;0.00;;;;;;;;;;6242630;23;20089;-88
2023/12/13 14:24:32;;;;;;;0.00;0.00;;;;;;;;;;6217475;23;20043;-84
2023/12/13 14:26:57;;;;;;;0.00;0.00;;;;;;;;;;6242942;23;20084;-85
2023/12/13 14:29:23;;;;;;;0.00;0.00;;;;;;;;;;6242084;23;20015;-85
2023/12/13 14:31:48;;;;;;;0.00;0.00;;;;;;;;;;6242681;23;20008;-85
2023/12/13 14:34:14;;;;;;;0.00;0.00;;;;;;;;;;6239444;23;20000;-84
2023/12/13 14:36:40;;;;;;;0.00;0.00;;;;;;;;;;6243123;22;20019;-84
2023/12/13 14:39:06;;;;;;;0.00;0.00;;;;;;;;;;6243265;22;20000;-85
2023/12/13 14:41:31;;;;;;;0.00;0.00;;;;;;;;;;6242938;23;20039;-85
2023/12/13 14:43:57;;;;;;;0.00;0.00;;;;;;;;;;6219828;23;20546;-85
2023/12/13 14:46:22;;;;;;;0.00;0.00;;;;;;;;;;6244696;22;19996;-85
2023/12/13 14:48:49;;;;;;;0.00;0.00;;;;;;;;;;6268061;23;19992;-86
2023/12/13 14:51:15;;;;;;;0.00;0.00;;;;;;;;;;6269755;22;20023;-84
2023/12/13 14:53:40;;;;;;;0.00;0.00;;;;;;;;;;6242460;23;20412;-84
2023/12/13 14:56:06;;;;;;;0.00;0.00;;;;;;;;;;6268556;23;20074;-86
2023/12/13 14:58:33;;;;;;;0.00;0.00;;;;;;;;;;6270196;22;20473;-85
2023/12/13 15:00:59;;;;;;;0.00;0.00;;;;;;;;;;6241952;23;20008;-86
2023/12/13 15:03:25;;;;;;;0.00;0.00;;;;;;;;;;6259166;23;20011;-85
2023/12/13 15:05:51;;;;;;;0.00;0.00;;;;;;;;;;6217609;23;20004;-85
2023/12/13 15:08:18;;;;;;;0.00;0.00;;;;;;;;;;6193580;23;20492;-86
2023/12/13 15:10:44;;;;;;;0.00;0.00;;;;;;;;;;6218510;23;20005;-85
2023/12/13 15:13:10;;;;;;;0.00;0.00;;;;;;;;;;6216866;23;20000;-85
2023/12/13 15:15:36;;;;;;;0.00;0.00;;;;;;;;;;6217279;23;20083;-85
2023/12/13 15:18:02;;;;;;;0.00;0.00;;;;;;;;;;6242388;23;20020;-85
2023/12/13 15:20:29;;;;;;;0.00;0.00;;;;;;;;;;6219144;22;20094;-85
2023/12/13 15:22:55;;;;;;;0.00;0.00;;;;;;;;;;6223027;22;20006;-85
2023/12/13 15:25:21;;;;;;;0.00;0.00;;;;;;;;;;6198170;22;20339;-86
2023/12/13 15:27:47;;;;;;;0.00;0.00;;;;;;;;;;6222908;22;20004;-85
2023/12/13 15:30:12;;;;;;;0.00;0.00;;;;;;;;;;6247621;22;20004;-85
2023/12/13 15:32:39;;;;;;;0.00;0.00;;;;;;;;;;6274431;22;20063;-85
2023/12/13 15:35:08;;;;;;;0.00;0.00;;;;;;;;;;6222726;22;20008;-85
2023/12/13 15:37:34;;;;;;;0.00;0.00;;;;;;;;;;6243140;22;20014;-86
2023/12/13 15:39:59;;;;;;;0.00;0.00;;;;;;;;;;6246890;22;20062;-85
2023/12/13 15:42:25;;;;;;;0.00;0.00;;;;;;;;;;6247480;22;20000;-85
2023/12/13 15:44:50;;;;;;;0.00;0.00;;;;;;;;;;6246973;22;20082;-86
2023/12/13 15:47:16;;;;;;;0.00;0.00;;;;;;;;;;6247473;22;20014;-83
2023/12/13 15:49:41;;;;;;;0.00;0.00;;;;;;;;;;6247023;22;20027;-84
2023/12/13 15:52:07;;;;;;;0.00;0.00;;;;;;;;;;6196824;22;20007;-84
2023/12/13 15:54:32;;;;;;;0.00;0.00;;;;;;;;;;6221748;22;20051;-85
2023/12/13 15:57:00;;;;;;;0.00;0.00;;;;;;;;;;6223164;22;20338;-84
2023/12/13 15:59:27;;;;;;;0.00;0.00;;;;;;;;;;6221728;22;20003;-85
2023/12/13 16:01:52;;;;;;;0.00;0.00;;;;;;;;;;6247768;22;20057;-84
2023/12/13 16:04:18;;;;;;;0.00;0.00;;;;;;;;;;6247980;22;20011;-84
2023/12/13 16:06:43;;;;;;;0.00;0.00;;;;;;;;;;6222570;22;20010;-84
2023/12/13 16:09:09;;;;;;;0.00;0.00;;;;;;;;;;6247300;22;20004;-85
2023/12/13 16:11:34;;;;;;;0.00;0.00;;;;;;;;;;6222805;22;20014;-84
2023/12/13 16:14:00;;;;;;;0.00;0.00;;;;;;;;;;6246997;22;20366;-85
2023/12/13 16:16:26;;;;;;;0.00;0.00;;;;;;;;;;6222418;22;20006;-85
2023/12/13 16:18:52;;;;;;;0.00;0.00;;;;;;;;;;6247927;22;20004;-85
2023/12/13 16:21:18;;;;;;;0.00;0.00;;;;;;;;;;6198161;22;20016;-85
2023/12/13 16:23:44;;;;;;;0.00;0.00;;;;;;;;;;6223109;22;20361;-85
2023/12/13 16:26:09;;;;;;;0.00;0.00;;;;;;;;;;6222647;22;19999;-84
2023/12/13 16:28:35;;;;;;;0.00;0.00;;;;;;;;;;6247084;22;20004;-84